sensor_id;sensor_type;location;lat;lon;timestamp;temperature;humidity
32293;DHT22;43233;48.608;8.838;2023-02-28T00:00:34;-2.20;49.10
32293;DHT22;43233;48.608;8.838;2023-02-28T00:03:00;-2.20;50.10
32293;DHT22;43233;48.608;8.838;2023-02-28T00:05:27;-2.20;49.40
32293;DHT22;43233;48.608;8.838;2023-02-28T00:07:53;-2.20;49.30
32293;DHT22;43233;48.608;8.838;2023-02-28T00:10:22;-2.20;49.80
32293;DHT22;43233;48.608;8.838;2023-02-28T00:12:49;-2.20;49.80
32293;DHT22;43233;48.608;8.838;2023-02-28T00:15:16;-2.20;49.80
32293;DHT22;43233;48.608;8.838;2023-02-28T00:17:41;-2.30;50.10
32293;DHT22;43233;48.608;8.838;2023-02-28T00:20:09;-2.30;50.00
32293;DHT22;43233;48.608;8.838;2023-02-28T00:22:36;-2.40;50.20
32293;DHT22;43233;48.608;8.838;2023-02-28T00:25:03;-2.40;50.30
32293;DHT22;43233;48.608;8.838;2023-02-28T00:27:30;-2.40;50.00
32293;DHT22;43233;48.608;8.838;2023-02-28T00:29:55;-2.40;49.60
32293;DHT22;43233;48.608;8.838;2023-02-28T00:32:21;-2.30;49.70
32293;DHT22;43233;48.608;8.838;2023-02-28T00:34:47;-2.30;50.10
32293;DHT22;43233;48.608;8.838;2023-02-28T00:37:12;-2.30;49.30
32293;DHT22;43233;48.608;8.838;2023-02-28T00:39:39;-2.40;49.40
32293;DHT22;43233;48.608;8.838;2023-02-28T00:42:05;-2.40;49.40
32293;DHT22;43233;48.608;8.838;2023-02-28T00:44:31;-2.50;49.50
32293;DHT22;43233;48.608;8.838;2023-02-28T00:46:57;-2.50;49.60
32293;DHT22;43233;48.608;8.838;2023-02-28T00:49:24;-2.50;49.90
32293;DHT22;43233;48.608;8.838;2023-02-28T00:51:51;-2.50;49.90
32293;DHT22;43233;48.608;8.838;2023-02-28T00:54:16;-2.50;49.70
32293;DHT22;43233;48.608;8.838;2023-02-28T00:56:42;-2.50;49.70
32293;DHT22;43233;48.608;8.838;2023-02-28T00:59:08;-2.50;50.00
32293;DHT22;43233;48.608;8.838;2023-02-28T01:01:34;-2.60;50.10
32293;DHT22;43233;48.608;8.838;2023-02-28T01:04:00;-2.60;50.10
32293;DHT22;43233;48.608;8.838;2023-02-28T01:06:26;-2.60;50.10
32293;DHT22;43233;48.608;8.838;2023-02-28T01:08:51;-2.60;50.10
32293;DHT22;43233;48.608;8.838;2023-02-28T01:11:18;-2.60;50.10
32293;DHT22;43233;48.608;8.838;2023-02-28T01:13:44;-2.60;50.30
32293;DHT22;43233;48.608;8.838;2023-02-28T01:16:10;-2.60;50.40
32293;DHT22;43233;48.608;8.838;2023-02-28T01:18:36;-2.60;50.60
32293;DHT22;43233;48.608;8.838;2023-02-28T01:21:11;-2.60;50.60
32293;DHT22;43233;48.608;8.838;2023-02-28T01:23:38;-2.70;50.60
32293;DHT22;43233;48.608;8.838;2023-02-28T01:26:06;-2.70;50.60
32293;DHT22;43233;48.608;8.838;2023-02-28T01:28:32;-2.70;50.80
32293;DHT22;43233;48.608;8.838;2023-02-28T01:30:57;-2.70;50.90
32293;DHT22;43233;48.608;8.838;2023-02-28T01:33:23;-2.80;51.30
32293;DHT22;43233;48.608;8.838;2023-02-28T01:35:48;-2.80;51.50
32293;DHT22;43233;48.608;8.838;2023-02-28T01:38:14;-2.80;51.40
32293;DHT22;43233;48.608;8.838;2023-02-28T01:40:40;-2.80;51.50
32293;DHT22;43233;48.608;8.838;2023-02-28T01:43:30;-2.80;52.00
32293;DHT22;43233;48.608;8.838;2023-02-28T01:45:57;-2.90;52.10
32293;DHT22;43233;48.608;8.838;2023-02-28T01:48:30;-2.90;52.00
32293;DHT22;43233;48.608;8.838;2023-02-28T01:51:00;-2.90;52.10
32293;DHT22;43233;48.608;8.838;2023-02-28T01:53:31;-2.90;52.60
32293;DHT22;43233;48.608;8.838;2023-02-28T01:55:58;-2.90;52.60
32293;DHT22;43233;48.608;8.838;2023-02-28T01:58:24;-2.90;52.90
32293;DHT22;43233;48.608;8.838;2023-02-28T02:00:50;-2.90;53.20
32293;DHT22;43233;48.608;8.838;2023-02-28T02:03:18;-2.90;53.30
32293;DHT22;43233;48.608;8.838;2023-02-28T02:05:45;-2.90;53.80
32293;DHT22;43233;48.608;8.838;2023-02-28T02:08:22;-3.00;53.70
32293;DHT22;43233;48.608;8.838;2023-02-28T02:11:00;-3.00;54.50
32293;DHT22;43233;48.608;8.838;2023-02-28T02:43:54;-3.10;55.60
32293;DHT22;43233;48.608;8.838;2023-02-28T02:46:37;-3.00;55.80
32293;DHT22;43233;48.608;8.838;2023-02-28T02:49:06;-3.00;55.60
32293;DHT22;43233;48.608;8.838;2023-02-28T02:51:34;-3.00;55.70
32293;DHT22;43233;48.608;8.838;2023-02-28T02:54:08;-3.00;56.00
32293;DHT22;43233;48.608;8.838;2023-02-28T02:56:39;-3.00;55.80
32293;DHT22;43233;48.608;8.838;2023-02-28T02:59:09;-3.00;56.10
32293;DHT22;43233;48.608;8.838;2023-02-28T03:01:37;-3.00;56.20
32293;DHT22;43233;48.608;8.838;2023-02-28T03:04:18;-3.00;56.80
32293;DHT22;43233;48.608;8.838;2023-02-28T03:06:45;-3.00;56.80
32293;DHT22;43233;48.608;8.838;2023-02-28T03:09:11;-3.00;57.00
32293;DHT22;43233;48.608;8.838;2023-02-28T03:11:37;-3.00;56.80
32293;DHT22;43233;48.608;8.838;2023-02-28T03:27:43;-3.00;58.00
32293;DHT22;43233;48.608;8.838;2023-02-28T03:30:18;-3.00;57.80
32293;DHT22;43233;48.608;8.838;2023-02-28T03:33:27;-2.90;57.90
32293;DHT22;43233;48.608;8.838;2023-02-28T03:35:56;-3.00;58.70
32293;DHT22;43233;48.608;8.838;2023-02-28T03:38:30;-3.00;58.40
32293;DHT22;43233;48.608;8.838;2023-02-28T03:43:44;-2.90;58.90
32293;DHT22;43233;48.608;8.838;2023-02-28T03:46:13;-2.90;59.10
32293;DHT22;43233;48.608;8.838;2023-02-28T03:48:48;-3.00;59.10
32293;DHT22;43233;48.608;8.838;2023-02-28T03:51:18;-2.90;59.20
32293;DHT22;43233;48.608;8.838;2023-02-28T03:53:59;-2.90;59.40
32293;DHT22;43233;48.608;8.838;2023-02-28T03:56:33;-2.90;59.40
32293;DHT22;43233;48.608;8.838;2023-02-28T03:59:13;-2.90;59.40
32293;DHT22;43233;48.608;8.838;2023-02-28T04:01:41;-2.80;59.40
32293;DHT22;43233;48.608;8.838;2023-02-28T04:04:08;-2.90;60.20
32293;DHT22;43233;48.608;8.838;2023-02-28T04:06:35;-2.80;60.40
32293;DHT22;43233;48.608;8.838;2023-02-28T04:09:01;-2.90;61.00
32293;DHT22;43233;48.608;8.838;2023-02-28T04:11:35;-2.80;60.80
32293;DHT22;43233;48.608;8.838;2023-02-28T04:14:05;-2.90;60.90
32293;DHT22;43233;48.608;8.838;2023-02-28T04:16:32;-2.80;60.40
32293;DHT22;43233;48.608;8.838;2023-02-28T04:18:58;-2.80;60.30
32293;DHT22;43233;48.608;8.838;2023-02-28T04:21:31;-2.70;60.90
32293;DHT22;43233;48.608;8.838;2023-02-28T04:23:57;-2.70;60.80
32293;DHT22;43233;48.608;8.838;2023-02-28T04:26:28;-2.70;61.00
32293;DHT22;43233;48.608;8.838;2023-02-28T04:28:55;-2.70;61.20
32293;DHT22;43233;48.608;8.838;2023-02-28T04:31:21;-2.70;61.00
32293;DHT22;43233;48.608;8.838;2023-02-28T04:33:47;-2.70;61.20
32293;DHT22;43233;48.608;8.838;2023-02-28T04:36:12;-2.70;61.40
32293;DHT22;43233;48.608;8.838;2023-02-28T04:38:39;-2.60;61.40
32293;DHT22;43233;48.608;8.838;2023-02-28T04:41:05;-2.60;62.20
32293;DHT22;43233;48.608;8.838;2023-02-28T04:43:31;-2.70;62.90
32293;DHT22;43233;48.608;8.838;2023-02-28T04:46:00;-2.70;62.80
32293;DHT22;43233;48.608;8.838;2023-02-28T04:48:31;-2.70;63.40
32293;DHT22;43233;48.608;8.838;2023-02-28T04:51:03;-2.70;63.70
32293;DHT22;43233;48.608;8.838;2023-02-28T04:53:29;-2.80;63.90
32293;DHT22;43233;48.608;8.838;2023-02-28T04:55:56;-2.80;64.50
32293;DHT22;43233;48.608;8.838;2023-02-28T04:58:22;-2.80;64.00
32293;DHT22;43233;48.608;8.838;2023-02-28T05:00:49;-2.70;64.20
32293;DHT22;43233;48.608;8.838;2023-02-28T05:03:15;-2.70;64.20
32293;DHT22;43233;48.608;8.838;2023-02-28T05:05:40;-2.70;63.70
32293;DHT22;43233;48.608;8.838;2023-02-28T05:08:06;-2.70;63.90
32293;DHT22;43233;48.608;8.838;2023-02-28T05:10:32;-2.70;64.00
32293;DHT22;43233;48.608;8.838;2023-02-28T05:12:58;-2.70;63.70
32293;DHT22;43233;48.608;8.838;2023-02-28T05:15:24;-2.70;63.50
32293;DHT22;43233;48.608;8.838;2023-02-28T05:17:50;-2.70;64.10
32293;DHT22;43233;48.608;8.838;2023-02-28T05:20:16;-2.60;64.20
32293;DHT22;43233;48.608;8.838;2023-02-28T05:22:43;-2.60;64.20
32293;DHT22;43233;48.608;8.838;2023-02-28T05:25:19;-2.60;64.20
32293;DHT22;43233;48.608;8.838;2023-02-28T05:27:45;-2.60;65.00
32293;DHT22;43233;48.608;8.838;2023-02-28T05:30:11;-2.60;65.30
32293;DHT22;43233;48.608;8.838;2023-02-28T05:32:38;-2.60;65.70
32293;DHT22;43233;48.608;8.838;2023-02-28T05:35:04;-2.60;66.30
32293;DHT22;43233;48.608;8.838;2023-02-28T05:37:29;-2.60;66.20
32293;DHT22;43233;48.608;8.838;2023-02-28T05:39:55;-2.60;66.50
32293;DHT22;43233;48.608;8.838;2023-02-28T05:42:21;-2.60;66.80
32293;DHT22;43233;48.608;8.838;2023-02-28T05:44:46;-2.70;67.20
32293;DHT22;43233;48.608;8.838;2023-02-28T05:47:12;-2.60;67.10
32293;DHT22;43233;48.608;8.838;2023-02-28T05:49:41;-2.60;68.30
32293;DHT22;43233;48.608;8.838;2023-02-28T05:52:07;-2.60;67.50
32293;DHT22;43233;48.608;8.838;2023-02-28T05:54:32;-2.60;67.50
32293;DHT22;43233;48.608;8.838;2023-02-28T05:56:58;-2.60;68.00
32293;DHT22;43233;48.608;8.838;2023-02-28T05:59:24;-2.60;68.60
32293;DHT22;43233;48.608;8.838;2023-02-28T06:01:49;-2.60;68.90
32293;DHT22;43233;48.608;8.838;2023-02-28T06:04:17;-2.70;69.10
32293;DHT22;43233;48.608;8.838;2023-02-28T06:06:47;-2.70;69.50
32293;DHT22;43233;48.608;8.838;2023-02-28T06:09:13;-2.60;69.40
32293;DHT22;43233;48.608;8.838;2023-02-28T06:11:39;-2.60;69.20
32293;DHT22;43233;48.608;8.838;2023-02-28T06:14:06;-2.50;69.00
32293;DHT22;43233;48.608;8.838;2023-02-28T06:16:34;-2.50;69.70
32293;DHT22;43233;48.608;8.838;2023-02-28T06:19:01;-2.50;69.50
32293;DHT22;43233;48.608;8.838;2023-02-28T06:21:28;-2.50;69.50
32293;DHT22;43233;48.608;8.838;2023-02-28T06:23:54;-2.40;69.60
32293;DHT22;43233;48.608;8.838;2023-02-28T06:26:20;-2.50;70.10
32293;DHT22;43233;48.608;8.838;2023-02-28T06:28:46;-2.50;70.40
32293;DHT22;43233;48.608;8.838;2023-02-28T06:31:15;-2.50;70.50
32293;DHT22;43233;48.608;8.838;2023-02-28T06:33:42;-2.50;70.90
32293;DHT22;43233;48.608;8.838;2023-02-28T06:36:09;-2.50;71.00
32293;DHT22;43233;48.608;8.838;2023-02-28T06:38:36;-2.40;71.10
32293;DHT22;43233;48.608;8.838;2023-02-28T06:41:03;-2.40;70.70
32293;DHT22;43233;48.608;8.838;2023-02-28T06:43:30;-2.50;71.70
32293;DHT22;43233;48.608;8.838;2023-02-28T06:45:57;-2.50;72.10
32293;DHT22;43233;48.608;8.838;2023-02-28T06:48:24;-2.60;73.10
32293;DHT22;43233;48.608;8.838;2023-02-28T06:50:49;-2.60;72.20
32293;DHT22;43233;48.608;8.838;2023-02-28T06:53:15;-2.50;72.00
32293;DHT22;43233;48.608;8.838;2023-02-28T06:55:41;-2.50;72.00
32293;DHT22;43233;48.608;8.838;2023-02-28T06:58:07;-2.50;72.40
32293;DHT22;43233;48.608;8.838;2023-02-28T07:00:45;-2.60;72.60
32293;DHT22;43233;48.608;8.838;2023-02-28T07:03:12;-2.50;72.50
32293;DHT22;43233;48.608;8.838;2023-02-28T07:05:38;-2.50;72.70
32293;DHT22;43233;48.608;8.838;2023-02-28T07:08:05;-2.50;72.60
32293;DHT22;43233;48.608;8.838;2023-02-28T07:10:33;-2.50;72.40
32293;DHT22;43233;48.608;8.838;2023-02-28T07:12:59;-2.50;72.20
32293;DHT22;43233;48.608;8.838;2023-02-28T07:15:25;-2.40;72.10
32293;DHT22;43233;48.608;8.838;2023-02-28T07:17:51;-2.40;71.70
32293;DHT22;43233;48.608;8.838;2023-02-28T07:20:17;-2.30;71.30
32293;DHT22;43233;48.608;8.838;2023-02-28T07:22:42;-2.30;71.50
32293;DHT22;43233;48.608;8.838;2023-02-28T07:25:08;-2.30;70.80
32293;DHT22;43233;48.608;8.838;2023-02-28T07:27:34;-2.30;70.90
32293;DHT22;43233;48.608;8.838;2023-02-28T07:30:00;-2.30;70.70
32293;DHT22;43233;48.608;8.838;2023-02-28T07:32:27;-2.30;70.20
32293;DHT22;43233;48.608;8.838;2023-02-28T07:34:53;-2.20;70.00
32293;DHT22;43233;48.608;8.838;2023-02-28T07:37:19;-2.10;69.90
32293;DHT22;43233;48.608;8.838;2023-02-28T07:39:45;-2.10;70.40
32293;DHT22;43233;48.608;8.838;2023-02-28T07:42:10;-2.00;69.30
32293;DHT22;43233;48.608;8.838;2023-02-28T07:44:38;-2.00;68.90
32293;DHT22;43233;48.608;8.838;2023-02-28T07:47:08;-2.00;69.00
32293;DHT22;43233;48.608;8.838;2023-02-28T07:49:35;-2.00;69.10
32293;DHT22;43233;48.608;8.838;2023-02-28T07:52:02;-2.00;69.00
32293;DHT22;43233;48.608;8.838;2023-02-28T07:54:28;-2.00;68.70
32293;DHT22;43233;48.608;8.838;2023-02-28T07:56:54;-1.90;68.30
32293;DHT22;43233;48.608;8.838;2023-02-28T07:59:20;-1.90;67.90
32293;DHT22;43233;48.608;8.838;2023-02-28T08:01:45;-1.80;67.30
32293;DHT22;43233;48.608;8.838;2023-02-28T08:04:11;-1.80;66.80
32293;DHT22;43233;48.608;8.838;2023-02-28T08:06:36;-1.70;66.70
32293;DHT22;43233;48.608;8.838;2023-02-28T08:09:02;-1.70;66.40
32293;DHT22;43233;48.608;8.838;2023-02-28T08:11:28;-1.70;65.60
32293;DHT22;43233;48.608;8.838;2023-02-28T08:13:54;-1.60;64.80
32293;DHT22;43233;48.608;8.838;2023-02-28T08:16:20;-1.50;64.90
32293;DHT22;43233;48.608;8.838;2023-02-28T08:18:51;-1.60;65.00
32293;DHT22;43233;48.608;8.838;2023-02-28T08:21:17;-1.50;64.50
32293;DHT22;43233;48.608;8.838;2023-02-28T08:23:43;-1.50;64.00
32293;DHT22;43233;48.608;8.838;2023-02-28T08:26:09;-1.50;63.40
32293;DHT22;43233;48.608;8.838;2023-02-28T08:28:34;-1.40;62.90
32293;DHT22;43233;48.608;8.838;2023-02-28T08:31:00;-1.40;62.40
32293;DHT22;43233;48.608;8.838;2023-02-28T08:33:27;-1.40;62.30
32293;DHT22;43233;48.608;8.838;2023-02-28T08:35:56;-1.30;62.40
32293;DHT22;43233;48.608;8.838;2023-02-28T08:38:22;-1.30;62.10
32293;DHT22;43233;48.608;8.838;2023-02-28T08:40:48;-1.20;61.90
32293;DHT22;43233;48.608;8.838;2023-02-28T08:43:14;-1.20;61.40
32293;DHT22;43233;48.608;8.838;2023-02-28T08:45:39;-1.20;61.90
32293;DHT22;43233;48.608;8.838;2023-02-28T08:48:05;-1.10;60.60
32293;DHT22;43233;48.608;8.838;2023-02-28T08:50:31;-1.10;60.70
32293;DHT22;43233;48.608;8.838;2023-02-28T08:52:57;-1.10;60.70
32293;DHT22;43233;48.608;8.838;2023-02-28T08:55:22;-1.10;60.40
32293;DHT22;43233;48.608;8.838;2023-02-28T08:57:48;-1.10;61.00
32293;DHT22;43233;48.608;8.838;2023-02-28T09:00:14;-1.00;60.50
32293;DHT22;43233;48.608;8.838;2023-02-28T09:02:40;-1.00;60.20
32293;DHT22;43233;48.608;8.838;2023-02-28T09:05:06;-1.00;59.90
32293;DHT22;43233;48.608;8.838;2023-02-28T09:07:32;-0.90;60.10
32293;DHT22;43233;48.608;8.838;2023-02-28T09:09:57;-0.90;60.50
32293;DHT22;43233;48.608;8.838;2023-02-28T09:12:27;-0.90;59.80
32293;DHT22;43233;48.608;8.838;2023-02-28T09:14:53;-0.90;59.80
32293;DHT22;43233;48.608;8.838;2023-02-28T09:17:20;-0.90;59.60
32293;DHT22;43233;48.608;8.838;2023-02-28T09:19:48;-0.80;59.70
32293;DHT22;43233;48.608;8.838;2023-02-28T09:22:14;-0.80;60.20
32293;DHT22;43233;48.608;8.838;2023-02-28T09:24:40;-0.80;59.00
32293;DHT22;43233;48.608;8.838;2023-02-28T09:27:05;-0.80;59.30
32293;DHT22;43233;48.608;8.838;2023-02-28T09:29:32;-0.70;59.40
32293;DHT22;43233;48.608;8.838;2023-02-28T09:31:59;-0.70;59.20
32293;DHT22;43233;48.608;8.838;2023-02-28T09:34:25;-0.70;58.50
32293;DHT22;43233;48.608;8.838;2023-02-28T09:36:51;-0.70;58.30
32293;DHT22;43233;48.608;8.838;2023-02-28T09:39:21;-0.70;58.50
32293;DHT22;43233;48.608;8.838;2023-02-28T09:41:51;-0.60;58.10
32293;DHT22;43233;48.608;8.838;2023-02-28T09:46:51;-0.60;58.80
32293;DHT22;43233;48.608;8.838;2023-02-28T09:49:31;-0.50;58.20
32293;DHT22;43233;48.608;8.838;2023-02-28T09:52:05;-0.50;57.90
32293;DHT22;43233;48.608;8.838;2023-02-28T09:54:34;-0.50;57.90
32293;DHT22;43233;48.608;8.838;2023-02-28T09:57:38;-0.40;57.10
32293;DHT22;43233;48.608;8.838;2023-02-28T10:05:27;-0.40;56.80
32293;DHT22;43233;48.608;8.838;2023-02-28T10:08:05;-0.40;57.40
32293;DHT22;43233;48.608;8.838;2023-02-28T10:10:39;-0.30;55.90
32293;DHT22;43233;48.608;8.838;2023-02-28T10:13:17;-0.30;55.40
32293;DHT22;43233;48.608;8.838;2023-02-28T10:15:46;-0.30;55.50
32293;DHT22;43233;48.608;8.838;2023-02-28T10:18:15;-0.20;55.80
32293;DHT22;43233;48.608;8.838;2023-02-28T10:20:45;-0.20;55.90
32293;DHT22;43233;48.608;8.838;2023-02-28T10:23:19;-0.10;55.80
32293;DHT22;43233;48.608;8.838;2023-02-28T10:25:53;-0.10;56.70
32293;DHT22;43233;48.608;8.838;2023-02-28T10:28:19;-0.10;55.80
32293;DHT22;43233;48.608;8.838;2023-02-28T10:30:50;0.00;56.20
32293;DHT22;43233;48.608;8.838;2023-02-28T10:33:27;0.00;55.10
32293;DHT22;43233;48.608;8.838;2023-02-28T10:35:54;0.00;54.70
32293;DHT22;43233;48.608;8.838;2023-02-28T10:38:25;0.00;54.40
32293;DHT22;43233;48.608;8.838;2023-02-28T10:40:51;0.00;54.20
32293;DHT22;43233;48.608;8.838;2023-02-28T10:43:28;0.10;55.20
32293;DHT22;43233;48.608;8.838;2023-02-28T10:48:34;-0.10;55.30
32293;DHT22;43233;48.608;8.838;2023-02-28T10:51:02;-0.10;55.70
32293;DHT22;43233;48.608;8.838;2023-02-28T10:53:49;0.00;55.40
32293;DHT22;43233;48.608;8.838;2023-02-28T10:56:18;0.00;54.10
32293;DHT22;43233;48.608;8.838;2023-02-28T10:59:03;0.10;54.10
32293;DHT22;43233;48.608;8.838;2023-02-28T11:01:47;0.20;54.30
32293;DHT22;43233;48.608;8.838;2023-02-28T11:04:39;0.30;53.90
32293;DHT22;43233;48.608;8.838;2023-02-28T11:07:19;0.30;53.80
32293;DHT22;43233;48.608;8.838;2023-02-28T11:09:52;0.40;53.50
32293;DHT22;43233;48.608;8.838;2023-02-28T11:12:38;0.50;53.70
32293;DHT22;43233;48.608;8.838;2023-02-28T11:15:18;0.50;52.40
32293;DHT22;43233;48.608;8.838;2023-02-28T11:17:57;0.60;52.60
32293;DHT22;43233;48.608;8.838;2023-02-28T11:20:28;0.60;52.60
32293;DHT22;43233;48.608;8.838;2023-02-28T11:22:54;0.70;52.50
32293;DHT22;43233;48.608;8.838;2023-02-28T11:25:32;0.80;52.00
32293;DHT22;43233;48.608;8.838;2023-02-28T11:28:01;0.80;51.60
32293;DHT22;43233;48.608;8.838;2023-02-28T11:30:32;0.80;51.40
32293;DHT22;43233;48.608;8.838;2023-02-28T11:32:59;0.90;51.70
32293;DHT22;43233;48.608;8.838;2023-02-28T11:35:32;1.00;52.00
32293;DHT22;43233;48.608;8.838;2023-02-28T11:38:00;1.10;51.60
32293;DHT22;43233;48.608;8.838;2023-02-28T11:40:46;1.10;51.60
32293;DHT22;43233;48.608;8.838;2023-02-28T11:46:05;1.20;50.30
32293;DHT22;43233;48.608;8.838;2023-02-28T11:48:33;1.30;50.60
32293;DHT22;43233;48.608;8.838;2023-02-28T11:56:47;1.70;48.50
32293;DHT22;43233;48.608;8.838;2023-02-28T12:02:37;1.90;48.90
32293;DHT22;43233;48.608;8.838;2023-02-28T12:05:34;2.10;49.60
32293;DHT22;43233;48.608;8.838;2023-02-28T12:22:05;2.60;45.90
32293;DHT22;43233;48.608;8.838;2023-02-28T12:24:47;2.70;44.90
32293;DHT22;43233;48.608;8.838;2023-02-28T12:27:20;3.00;45.30
32293;DHT22;43233;48.608;8.838;2023-02-28T12:29:56;3.20;45.30
32293;DHT22;43233;48.608;8.838;2023-02-28T12:34:52;3.50;44.50
32293;DHT22;43233;48.608;8.838;2023-02-28T12:40:13;4.20;43.30
32293;DHT22;43233;48.608;8.838;2023-02-28T12:42:46;4.40;42.00
32293;DHT22;43233;48.608;8.838;2023-02-28T12:45:19;4.60;41.90
32293;DHT22;43233;48.608;8.838;2023-02-28T12:47:50;4.80;41.10
32293;DHT22;43233;48.608;8.838;2023-02-28T12:50:17;5.20;40.30
32293;DHT22;43233;48.608;8.838;2023-02-28T12:55:55;6.00;38.00
32293;DHT22;43233;48.608;8.838;2023-02-28T12:58:28;6.30;36.80
32293;DHT22;43233;48.608;8.838;2023-02-28T13:06:41;8.50;32.90
32293;DHT22;43233;48.608;8.838;2023-02-28T13:09:17;9.00;33.10
32293;DHT22;43233;48.608;8.838;2023-02-28T13:11:51;9.30;31.00
32293;DHT22;43233;48.608;8.838;2023-02-28T13:14:26;9.70;30.80
32293;DHT22;43233;48.608;8.838;2023-02-28T13:16:57;10.10;31.00
32293;DHT22;43233;48.608;8.838;2023-02-28T13:19:26;10.30;29.80
32293;DHT22;43233;48.608;8.838;2023-02-28T13:21:52;10.70;30.00
32293;DHT22;43233;48.608;8.838;2023-02-28T13:29:36;11.70;27.80
32293;DHT22;43233;48.608;8.838;2023-02-28T13:34:31;12.10;27.20
32293;DHT22;43233;48.608;8.838;2023-02-28T13:42:36;13.30;24.00
32293;DHT22;43233;48.608;8.838;2023-02-28T13:47:48;13.20;23.80
32293;DHT22;43233;48.608;8.838;2023-02-28T14:11:36;12.60;24.70
32293;DHT22;43233;48.608;8.838;2023-02-28T14:14:04;12.80;24.00
32293;DHT22;43233;48.608;8.838;2023-02-28T14:16:37;13.10;23.90
32293;DHT22;43233;48.608;8.838;2023-02-28T14:19:26;13.80;23.00
32293;DHT22;43233;48.608;8.838;2023-02-28T14:30:49;16.40;19.40
32293;DHT22;43233;48.608;8.838;2023-02-28T14:36:06;16.60;18.70
32293;DHT22;43233;48.608;8.838;2023-02-28T14:38:40;16.20;19.30
32293;DHT22;43233;48.608;8.838;2023-02-28T14:41:24;15.80;19.40
32293;DHT22;43233;48.608;8.838;2023-02-28T14:43:56;16.10;19.80
32293;DHT22;43233;48.608;8.838;2023-02-28T14:46:26;16.30;19.30
32293;DHT22;43233;48.608;8.838;2023-02-28T14:48:52;16.70;19.30
32293;DHT22;43233;48.608;8.838;2023-02-28T14:51:19;16.90;18.60
32293;DHT22;43233;48.608;8.838;2023-02-28T14:53:50;17.10;18.70
32293;DHT22;43233;48.608;8.838;2023-02-28T14:56:22;17.00;18.90
32293;DHT22;43233;48.608;8.838;2023-02-28T14:58:53;17.10;18.60
32293;DHT22;43233;48.608;8.838;2023-02-28T15:01:21;17.30;17.90
32293;DHT22;43233;48.608;8.838;2023-02-28T15:03:47;16.30;18.60
32293;DHT22;43233;48.608;8.838;2023-02-28T15:06:14;16.10;19.20
32293;DHT22;43233;48.608;8.838;2023-02-28T15:08:41;16.00;19.10
32293;DHT22;43233;48.608;8.838;2023-02-28T15:11:15;16.10;19.60
32293;DHT22;43233;48.608;8.838;2023-02-28T15:13:47;15.90;18.70
32293;DHT22;43233;48.608;8.838;2023-02-28T15:16:29;15.30;19.30
32293;DHT22;43233;48.608;8.838;2023-02-28T15:19:25;15.50;20.00
32293;DHT22;43233;48.608;8.838;2023-02-28T15:21:57;15.90;19.70
32293;DHT22;43233;48.608;8.838;2023-02-28T15:24:32;16.40;18.90
32293;DHT22;43233;48.608;8.838;2023-02-28T15:27:05;16.40;19.40
32293;DHT22;43233;48.608;8.838;2023-02-28T15:29:48;15.60;19.10
32293;DHT22;43233;48.608;8.838;2023-02-28T15:34:54;16.10;19.40
32293;DHT22;43233;48.608;8.838;2023-02-28T15:40:50;16.30;18.90
32293;DHT22;43233;48.608;8.838;2023-02-28T15:43:17;15.60;19.30
32293;DHT22;43233;48.608;8.838;2023-02-28T15:46:07;15.70;19.50
32293;DHT22;43233;48.608;8.838;2023-02-28T15:53:50;15.10;19.90
32293;DHT22;43233;48.608;8.838;2023-02-28T15:58:56;14.90;20.30
32293;DHT22;43233;48.608;8.838;2023-02-28T16:01:30;15.00;20.10
32293;DHT22;43233;48.608;8.838;2023-02-28T16:04:03;15.10;19.90
32293;DHT22;43233;48.608;8.838;2023-02-28T16:06:42;15.20;19.70
32293;DHT22;43233;48.608;8.838;2023-02-28T16:09:14;15.00;19.80
32293;DHT22;43233;48.608;8.838;2023-02-28T16:11:45;14.60;19.70
32293;DHT22;43233;48.608;8.838;2023-02-28T16:14:26;14.30;20.00
32293;DHT22;43233;48.608;8.838;2023-02-28T16:16:55;13.70;20.90
32293;DHT22;43233;48.608;8.838;2023-02-28T16:19:22;13.20;21.70
32293;DHT22;43233;48.608;8.838;2023-02-28T16:21:48;13.00;21.90
32293;DHT22;43233;48.608;8.838;2023-02-28T16:24:14;12.80;22.50
32293;DHT22;43233;48.608;8.838;2023-02-28T16:26:46;12.60;22.10
32293;DHT22;43233;48.608;8.838;2023-02-28T16:29:18;12.00;22.80
32293;DHT22;43233;48.608;8.838;2023-02-28T16:31:45;11.70;23.70
32293;DHT22;43233;48.608;8.838;2023-02-28T16:34:11;11.20;24.30
32293;DHT22;43233;48.608;8.838;2023-02-28T16:36:37;10.80;24.50
32293;DHT22;43233;48.608;8.838;2023-02-28T16:39:02;10.20;25.60
32293;DHT22;43233;48.608;8.838;2023-02-28T16:41:29;9.90;26.40
32293;DHT22;43233;48.608;8.838;2023-02-28T16:43:56;9.50;26.70
32293;DHT22;43233;48.608;8.838;2023-02-28T16:46:28;9.00;27.40
32293;DHT22;43233;48.608;8.838;2023-02-28T16:48:55;8.50;28.50
32293;DHT22;43233;48.608;8.838;2023-02-28T16:51:21;8.10;29.00
32293;DHT22;43233;48.608;8.838;2023-02-28T16:53:47;7.80;29.80
32293;DHT22;43233;48.608;8.838;2023-02-28T16:56:19;7.50;30.30
32293;DHT22;43233;48.608;8.838;2023-02-28T16:58:45;7.30;30.50
32293;DHT22;43233;48.608;8.838;2023-02-28T17:01:11;7.20;31.40
32293;DHT22;43233;48.608;8.838;2023-02-28T17:03:37;7.00;31.30
32293;DHT22;43233;48.608;8.838;2023-02-28T17:06:03;6.80;31.90
32293;DHT22;43233;48.608;8.838;2023-02-28T17:08:31;6.60;32.20
32293;DHT22;43233;48.608;8.838;2023-02-28T17:10:57;6.40;32.80
32293;DHT22;43233;48.608;8.838;2023-02-28T17:13:23;6.30;33.20
32293;DHT22;43233;48.608;8.838;2023-02-28T17:15:49;6.10;33.60
32293;DHT22;43233;48.608;8.838;2023-02-28T17:18:17;5.90;33.80
32293;DHT22;43233;48.608;8.838;2023-02-28T17:20:44;5.70;34.40
32293;DHT22;43233;48.608;8.838;2023-02-28T17:23:10;5.60;34.80
32293;DHT22;43233;48.608;8.838;2023-02-28T17:25:36;5.40;35.40
32293;DHT22;43233;48.608;8.838;2023-02-28T17:28:02;5.20;35.60
32293;DHT22;43233;48.608;8.838;2023-02-28T17:30:28;5.10;36.00
32293;DHT22;43233;48.608;8.838;2023-02-28T17:32:57;5.00;36.30
32293;DHT22;43233;48.608;8.838;2023-02-28T17:35:23;4.90;36.70
32293;DHT22;43233;48.608;8.838;2023-02-28T17:37:49;4.70;37.20
32293;DHT22;43233;48.608;8.838;2023-02-28T17:40:16;4.60;37.50
32293;DHT22;43233;48.608;8.838;2023-02-28T17:42:43;4.40;38.20
32293;DHT22;43233;48.608;8.838;2023-02-28T17:45:10;4.30;38.70
32293;DHT22;43233;48.608;8.838;2023-02-28T17:47:36;4.10;39.00
32293;DHT22;43233;48.608;8.838;2023-02-28T17:50:01;4.00;39.30
32293;DHT22;43233;48.608;8.838;2023-02-28T17:52:27;4.00;39.40
32293;DHT22;43233;48.608;8.838;2023-02-28T17:54:54;3.90;39.40
32293;DHT22;43233;48.608;8.838;2023-02-28T17:57:20;3.90;39.60
32293;DHT22;43233;48.608;8.838;2023-02-28T17:59:45;3.80;40.10
32293;DHT22;43233;48.608;8.838;2023-02-28T18:02:12;3.70;40.40
32293;DHT22;43233;48.608;8.838;2023-02-28T18:04:38;3.70;40.50
32293;DHT22;43233;48.608;8.838;2023-02-28T18:07:05;3.60;40.50
32293;DHT22;43233;48.608;8.838;2023-02-28T18:09:31;3.50;40.60
32293;DHT22;43233;48.608;8.838;2023-02-28T18:11:57;3.50;40.50
32293;DHT22;43233;48.608;8.838;2023-02-28T18:14:24;3.50;40.80
32293;DHT22;43233;48.608;8.838;2023-02-28T18:16:52;3.40;40.70
32293;DHT22;43233;48.608;8.838;2023-02-28T18:19:18;3.40;41.00
32293;DHT22;43233;48.608;8.838;2023-02-28T18:21:50;3.30;41.20
32293;DHT22;43233;48.608;8.838;2023-02-28T18:24:17;3.30;41.60
32293;DHT22;43233;48.608;8.838;2023-02-28T18:26:43;3.20;41.80